HAZ7220 ZSPD-ZJHK
Flight info
| Callsign | HAZ7220 |
|---|---|
| Flight time | 2h 34m |
| Altitude | 32100 |
| Route | NXD91D NXD W131 AKDIM A470 DUBGO W134 ELNEX A599 PLT W19 NOMAR W18 NLG W23 ZUH R200 BIGRO G221 GIVIV W605 DOMGO DOM7XA |
| Aircraft | B738/M-SDE2E3FGHIRWXY/LB1 |
Departure
| Time | 2026-05-07 13:24 |
|---|---|
| Airport | Shanghai Pudong International Airport (ZSPD) |
Arrival
| Time | 2026-05-07 15:59 |
|---|---|
| Airport | Haikou Meilan International Airport (ZJHK) |
| Time | Latitude | Longitude | Altitude | Speed | Heading |
|---|---|---|---|---|---|
| 2026-05-07 13:07 | 31.14752 | 121.80777 | 21 ft | 0 kts | 72° |
| 2026-05-07 13:11 | 31.14751 | 121.80773 | 21 ft | 2 kts | 72° |
| 2026-05-07 13:12 | 31.14747 | 121.80756 | 21 ft | 2 kts | 84° |
| 2026-05-07 13:12 | 31.14747 | 121.80739 | 21 ft | 2 kts | 96° |
| 2026-05-07 13:12 | 31.14749 | 121.80722 | 21 ft | 2 kts | 109° |
| 2026-05-07 13:12 | 31.14756 | 121.80706 | 21 ft | 2 kts | 122° |
| 2026-05-07 13:13 | 31.14765 | 121.80692 | 21 ft | 2 kts | 135° |
| 2026-05-07 13:13 | 31.14776 | 121.80680 | 21 ft | 2 kts | 147° |
| 2026-05-07 13:13 | 31.14789 | 121.80673 | 21 ft | 1 kts | 160° |
| 2026-05-07 13:13 | 31.14795 | 121.80670 | 21 ft | 1 kts | 163° |
| 2026-05-07 13:14 | 31.14796 | 121.80670 | 21 ft | 0 kts | 163° |
| 2026-05-07 13:15 | 31.14795 | 121.80670 | 21 ft | 1 kts | 163° |
| 2026-05-07 13:15 | 31.14761 | 121.80682 | 21 ft | 8 kts | 163° |
| 2026-05-07 13:15 | 31.14679 | 121.80711 | 21 ft | 15 kts | 163° |
| 2026-05-07 13:15 | 31.14553 | 121.80757 | 21 ft | 21 kts | 163° |
| 2026-05-07 13:16 | 31.14422 | 121.80810 | 21 ft | 18 kts | 159° |
| 2026-05-07 13:16 | 31.14328 | 121.80770 | 21 ft | 15 kts | 252° |
| 2026-05-07 13:16 | 31.14298 | 121.80660 | 21 ft | 13 kts | 253° |
| 2026-05-07 13:16 | 31.14269 | 121.80553 | 21 ft | 13 kts | 251° |
| 2026-05-07 13:17 | 31.14240 | 121.80449 | 21 ft | 13 kts | 253° |
| 2026-05-07 13:17 | 31.14213 | 121.80344 | 21 ft | 13 kts | 254° |
| 2026-05-07 13:17 | 31.14182 | 121.80245 | 21 ft | 12 kts | 250° |
| 2026-05-07 13:17 | 31.14153 | 121.80145 | 21 ft | 12 kts | 252° |
| 2026-05-07 13:18 | 31.14126 | 121.80046 | 21 ft | 12 kts | 252° |
| 2026-05-07 13:18 | 31.14099 | 121.79949 | 21 ft | 12 kts | 253° |
| 2026-05-07 13:18 | 31.14074 | 121.79851 | 21 ft | 12 kts | 254° |
| 2026-05-07 13:18 | 31.14046 | 121.79758 | 21 ft | 12 kts | 237° |
| 2026-05-07 13:19 | 31.13967 | 121.79745 | 21 ft | 13 kts | 161° |
| 2026-05-07 13:19 | 31.13875 | 121.79779 | 21 ft | 14 kts | 162° |
| 2026-05-07 13:19 | 31.13774 | 121.79816 | 21 ft | 15 kts | 162° |
| 2026-05-07 13:19 | 31.13663 | 121.79858 | 21 ft | 17 kts | 162° |
| 2026-05-07 13:20 | 31.13546 | 121.79902 | 21 ft | 18 kts | 161° |
| 2026-05-07 13:20 | 31.13422 | 121.79951 | 21 ft | 19 kts | 162° |
| 2026-05-07 13:20 | 31.13296 | 121.79999 | 21 ft | 18 kts | 162° |
| 2026-05-07 13:20 | 31.13191 | 121.80039 | 21 ft | 14 kts | 162° |
| 2026-05-07 13:21 | 31.13094 | 121.80076 | 21 ft | 14 kts | 162° |
| 2026-05-07 13:21 | 31.13002 | 121.80112 | 21 ft | 13 kts | 161° |
| 2026-05-07 13:21 | 31.12915 | 121.80145 | 21 ft | 13 kts | 161° |
| 2026-05-07 13:21 | 31.12829 | 121.80178 | 21 ft | 12 kts | 168° |
| 2026-05-07 13:22 | 31.12768 | 121.80128 | 21 ft | 11 kts | 251° |
| 2026-05-07 13:22 | 31.12746 | 121.80048 | 21 ft | 9 kts | 253° |
| 2026-05-07 13:22 | 31.12728 | 121.79981 | 21 ft | 7 kts | 253° |
| 2026-05-07 13:22 | 31.12714 | 121.79924 | 21 ft | 6 kts | 254° |
| 2026-05-07 13:23 | 31.12722 | 121.79887 | 21 ft | 4 kts | 336° |
| 2026-05-07 13:23 | 31.12747 | 121.79875 | 21 ft | 3 kts | 342° |
| 2026-05-07 13:23 | 31.12764 | 121.79869 | 21 ft | 2 kts | 343° |
| 2026-05-07 13:23 | 31.12894 | 121.79821 | 21 ft | 49 kts | 341° |
| 2026-05-07 13:24 | 31.13427 | 121.79620 | 21 ft | 108 kts | 342° |
| 2026-05-07 13:24 | 31.14306 | 121.79279 | 47 ft | 151 kts | 343° |
| 2026-05-07 13:24 | 31.15305 | 121.78940 | 533 ft | 152 kts | 350° |
| 2026-05-07 13:24 | 31.16305 | 121.78609 | 1245 ft | 148 kts | 345° |
| 2026-05-07 13:25 | 31.17284 | 121.78141 | 1736 ft | 155 kts | 344° |
| 2026-05-07 13:25 | 31.18315 | 121.77676 | 2064 ft | 165 kts | 345° |
| 2026-05-07 13:25 | 31.19445 | 121.77225 | 2356 ft | 178 kts | 346° |
| 2026-05-07 13:25 | 31.20696 | 121.76730 | 2608 ft | 196 kts | 344° |
| 2026-05-07 13:26 | 31.22058 | 121.76183 | 2893 ft | 213 kts | 344° |
| 2026-05-07 13:26 | 31.23491 | 121.75603 | 3246 ft | 226 kts | 343° |
| 2026-05-07 13:26 | 31.25025 | 121.74982 | 3733 ft | 236 kts | 342° |
| 2026-05-07 13:26 | 31.26624 | 121.74339 | 4122 ft | 248 kts | 342° |
| 2026-05-07 13:27 | 31.28278 | 121.73675 | 4642 ft | 255 kts | 342° |
| 2026-05-07 13:27 | 31.29967 | 121.72998 | 5241 ft | 258 kts | 341° |
| 2026-05-07 13:27 | 31.31670 | 121.72257 | 5795 ft | 264 kts | 333° |
| 2026-05-07 13:27 | 31.33092 | 121.70884 | 6403 ft | 267 kts | 306° |
| 2026-05-07 13:28 | 31.33856 | 121.68913 | 7099 ft | 268 kts | 284° |
| 2026-05-07 13:28 | 31.34021 | 121.66758 | 7857 ft | 266 kts | 269° |
| 2026-05-07 13:28 | 31.33816 | 121.64635 | 8657 ft | 263 kts | 263° |
| 2026-05-07 13:28 | 31.33477 | 121.62553 | 9390 ft | 262 kts | 261° |
| 2026-05-07 13:29 | 31.33097 | 121.60424 | 9888 ft | 271 kts | 261° |
| 2026-05-07 13:29 | 31.32717 | 121.58245 | 10427 ft | 276 kts | 261° |
| 2026-05-07 13:29 | 31.32348 | 121.56069 | 11075 ft | 277 kts | 261° |
| 2026-05-07 13:29 | 31.31974 | 121.53822 | 11569 ft | 286 kts | 261° |
| 2026-05-07 13:30 | 31.31587 | 121.51462 | 11851 ft | 304 kts | 261° |
| 2026-05-07 13:30 | 31.31174 | 121.48930 | 11839 ft | 328 kts | 261° |
| 2026-05-07 13:30 | 31.30728 | 121.46213 | 11863 ft | 344 kts | 261° |
| 2026-05-07 13:30 | 31.30265 | 121.43420 | 11850 ft | 347 kts | 261° |
| 2026-05-07 13:31 | 31.29802 | 121.40653 | 11849 ft | 346 kts | 261° |
| 2026-05-07 13:31 | 31.29346 | 121.37925 | 11854 ft | 345 kts | 261° |
| 2026-05-07 13:31 | 31.28781 | 121.35159 | 11852 ft | 345 kts | 255° |
| 2026-05-07 13:31 | 31.27757 | 121.32645 | 11853 ft | 351 kts | 238° |
| 2026-05-07 13:32 | 31.26067 | 121.30548 | 11867 ft | 355 kts | 224° |
| 2026-05-07 13:32 | 31.24128 | 121.28688 | 11853 ft | 357 kts | 222° |
| 2026-05-07 13:32 | 31.22179 | 121.26893 | 11851 ft | 357 kts | 221° |
| 2026-05-07 13:32 | 31.20224 | 121.25090 | 11853 ft | 356 kts | 222° |
| 2026-05-07 13:33 | 31.18268 | 121.23263 | 11854 ft | 357 kts | 222° |
| 2026-05-07 13:33 | 31.16338 | 121.21436 | 11854 ft | 356 kts | 223° |
| 2026-05-07 13:33 | 31.14435 | 121.19622 | 11855 ft | 356 kts | 223° |
| 2026-05-07 13:33 | 31.12481 | 121.17748 | 12047 ft | 366 kts | 223° |
| 2026-05-07 13:34 | 31.10537 | 121.15887 | 13022 ft | 358 kts | 223° |
| 2026-05-07 13:34 | 31.07081 | 121.11807 | 14439 ft | 353 kts | 241° |
| 2026-05-07 13:34 | 31.06079 | 121.09167 | 15068 ft | 352 kts | 253° |
| 2026-05-07 13:35 | 31.05379 | 121.06428 | 15625 ft | 357 kts | 256° |
| 2026-05-07 13:35 | 31.04729 | 121.03615 | 16250 ft | 359 kts | 256° |
| 2026-05-07 13:35 | 31.04083 | 121.00796 | 16847 ft | 361 kts | 256° |
| 2026-05-07 13:35 | 31.03417 | 120.97955 | 17408 ft | 364 kts | 256° |
| 2026-05-07 13:36 | 31.02732 | 120.95109 | 17983 ft | 367 kts | 256° |
| 2026-05-07 13:36 | 31.02032 | 120.92255 | 18481 ft | 371 kts | 256° |
| 2026-05-07 13:36 | 31.01317 | 120.89374 | 19074 ft | 372 kts | 256° |
| 2026-05-07 13:36 | 31.00586 | 120.86439 | 19563 ft | 376 kts | 255° |
| 2026-05-07 13:37 | 30.99854 | 120.83511 | 20109 ft | 377 kts | 256° |
| 2026-05-07 13:37 | 30.99122 | 120.80590 | 20601 ft | 380 kts | 256° |
| 2026-05-07 13:37 | 30.98377 | 120.77611 | 21124 ft | 382 kts | 256° |
| 2026-05-07 13:37 | 30.97627 | 120.74622 | 21589 ft | 385 kts | 256° |
| 2026-05-07 13:38 | 30.96865 | 120.71590 | 22067 ft | 387 kts | 256° |
| 2026-05-07 13:38 | 30.96107 | 120.68574 | 22522 ft | 390 kts | 256° |
| 2026-05-07 13:38 | 30.95345 | 120.65540 | 22974 ft | 392 kts | 256° |
| 2026-05-07 13:38 | 30.94566 | 120.62439 | 23426 ft | 394 kts | 256° |
| 2026-05-07 13:39 | 30.93802 | 120.59392 | 23850 ft | 397 kts | 256° |
| 2026-05-07 13:39 | 30.93024 | 120.56291 | 24270 ft | 400 kts | 256° |
| 2026-05-07 13:39 | 30.92239 | 120.53159 | 24793 ft | 400 kts | 256° |
| 2026-05-07 13:39 | 30.91431 | 120.50060 | 25180 ft | 404 kts | 255° |
| 2026-05-07 13:40 | 30.90417 | 120.46950 | 25541 ft | 410 kts | 249° |
| 2026-05-07 13:40 | 30.89003 | 120.44061 | 25972 ft | 416 kts | 240° |
| 2026-05-07 13:40 | 30.87155 | 120.41448 | 26395 ft | 424 kts | 231° |
| 2026-05-07 13:40 | 30.84944 | 120.39121 | 26843 ft | 429 kts | 225° |
| 2026-05-07 13:41 | 30.82549 | 120.36970 | 27201 ft | 434 kts | 223° |
| 2026-05-07 13:41 | 30.80089 | 120.34906 | 27518 ft | 438 kts | 221° |
| 2026-05-07 13:41 | 30.77560 | 120.32842 | 27882 ft | 441 kts | 220° |
| 2026-05-07 13:41 | 30.75004 | 120.30779 | 28258 ft | 443 kts | 221° |
| 2026-05-07 13:42 | 30.72469 | 120.28740 | 28626 ft | 445 kts | 221° |
| 2026-05-07 13:42 | 30.69923 | 120.26686 | 29037 ft | 446 kts | 221° |
| 2026-05-07 13:42 | 30.67376 | 120.24627 | 29658 ft | 441 kts | 221° |
| 2026-05-07 13:42 | 30.64875 | 120.22605 | 30358 ft | 435 kts | 221° |
| 2026-05-07 13:43 | 30.62357 | 120.20563 | 30754 ft | 435 kts | 221° |
| 2026-05-07 13:43 | 30.59894 | 120.18557 | 31211 ft | 434 kts | 222° |
| 2026-05-07 13:43 | 30.57404 | 120.16526 | 31595 ft | 434 kts | 222° |
| 2026-05-07 13:43 | 30.54908 | 120.14487 | 31936 ft | 434 kts | 222° |
| 2026-05-07 13:44 | 30.52421 | 120.12454 | 32171 ft | 436 kts | 222° |
| 2026-05-07 13:44 | 30.47496 | 120.08432 | 32181 ft | 432 kts | 222° |
| 2026-05-07 13:45 | 30.42519 | 120.04433 | 32178 ft | 435 kts | 220° |
| 2026-05-07 13:45 | 30.37292 | 120.00800 | 32175 ft | 437 kts | 217° |
| 2026-05-07 13:46 | 30.31924 | 119.97311 | 32171 ft | 437 kts | 217° |
| 2026-05-07 13:46 | 30.26562 | 119.93825 | 32175 ft | 439 kts | 217° |
| 2026-05-07 13:47 | 30.21227 | 119.90323 | 32166 ft | 437 kts | 217° |
| 2026-05-07 13:47 | 30.15880 | 119.86791 | 32171 ft | 437 kts | 217° |
| 2026-05-07 13:48 | 30.10550 | 119.83262 | 32177 ft | 439 kts | 217° |
| 2026-05-07 13:48 | 30.05209 | 119.79726 | 32172 ft | 439 kts | 217° |
| 2026-05-07 13:49 | 29.99865 | 119.76162 | 32170 ft | 437 kts | 217° |
| 2026-05-07 13:49 | 29.94599 | 119.72615 | 32169 ft | 438 kts | 217° |
| 2026-05-07 13:50 | 29.89310 | 119.69055 | 32177 ft | 438 kts | 218° |
| 2026-05-07 13:50 | 29.84036 | 119.65479 | 32180 ft | 434 kts | 219° |
| 2026-05-07 13:51 | 29.78965 | 119.61616 | 32178 ft | 432 kts | 221° |
| 2026-05-07 13:51 | 29.74040 | 119.57674 | 32178 ft | 431 kts | 222° |
| 2026-05-07 13:52 | 29.69071 | 119.53710 | 32180 ft | 432 kts | 221° |
| 2026-05-07 13:52 | 29.64186 | 119.49648 | 32173 ft | 426 kts | 226° |
| 2026-05-07 13:53 | 29.59904 | 119.44958 | 32172 ft | 421 kts | 233° |
| 2026-05-07 13:53 | 29.55958 | 119.40005 | 32174 ft | 419 kts | 234° |
| 2026-05-07 13:54 | 29.52046 | 119.34965 | 32171 ft | 419 kts | 234° |
| 2026-05-07 13:54 | 29.48152 | 119.29960 | 32165 ft | 419 kts | 234° |
| 2026-05-07 13:55 | 29.44256 | 119.24983 | 32160 ft | 417 kts | 234° |
| 2026-05-07 13:55 | 29.40332 | 119.19990 | 32162 ft | 419 kts | 234° |
| 2026-05-07 13:56 | 29.36413 | 119.15015 | 32155 ft | 419 kts | 233° |
| 2026-05-07 13:56 | 29.32485 | 119.10043 | 32158 ft | 420 kts | 233° |
| 2026-05-07 13:57 | 29.28541 | 119.05065 | 32146 ft | 420 kts | 233° |
| 2026-05-07 13:57 | 29.24595 | 119.00094 | 32133 ft | 419 kts | 233° |
| 2026-05-07 13:58 | 29.20646 | 118.95124 | 32136 ft | 419 kts | 233° |
| 2026-05-07 13:58 | 29.16711 | 118.90180 | 32139 ft | 419 kts | 233° |
| 2026-05-07 13:59 | 29.12776 | 118.85245 | 32133 ft | 419 kts | 233° |
| 2026-05-07 13:59 | 29.08828 | 118.80299 | 32137 ft | 420 kts | 233° |
| 2026-05-07 14:00 | 29.04869 | 118.75346 | 32130 ft | 418 kts | 233° |
| 2026-05-07 14:00 | 29.00944 | 118.70441 | 32120 ft | 418 kts | 233° |
| 2026-05-07 14:01 | 28.97012 | 118.65530 | 32116 ft | 418 kts | 233° |
| 2026-05-07 14:01 | 28.93064 | 118.60605 | 32120 ft | 420 kts | 233° |
| 2026-05-07 14:02 | 28.89099 | 118.55667 | 32123 ft | 417 kts | 233° |
| 2026-05-07 14:02 | 28.85151 | 118.50750 | 32288 ft | 427 kts | 233° |
| 2026-05-07 14:02 | 28.83117 | 118.48219 | 32690 ft | 425 kts | 233° |
| 2026-05-07 14:03 | 28.81140 | 118.45766 | 33187 ft | 421 kts | 233° |
| 2026-05-07 14:03 | 28.79135 | 118.43284 | 33668 ft | 418 kts | 233° |
| 2026-05-07 14:03 | 28.77185 | 118.40868 | 34104 ft | 415 kts | 233° |
| 2026-05-07 14:03 | 28.75214 | 118.38424 | 34462 ft | 414 kts | 234° |
| 2026-05-07 14:04 | 28.73246 | 118.35986 | 34762 ft | 414 kts | 234° |
| 2026-05-07 14:04 | 28.71323 | 118.33604 | 35077 ft | 413 kts | 234° |
| 2026-05-07 14:04 | 28.69358 | 118.31173 | 35391 ft | 413 kts | 233° |
| 2026-05-07 14:04 | 28.67419 | 118.28774 | 35629 ft | 414 kts | 234° |
| 2026-05-07 14:05 | 28.65435 | 118.26317 | 35623 ft | 417 kts | 234° |
| 2026-05-07 14:05 | 28.61528 | 118.21493 | 35632 ft | 411 kts | 233° |
| 2026-05-07 14:06 | 28.57654 | 118.16711 | 35716 ft | 410 kts | 234° |
| 2026-05-07 14:06 | 28.55699 | 118.14303 | 36007 ft | 409 kts | 234° |
| 2026-05-07 14:06 | 28.53770 | 118.11926 | 36132 ft | 412 kts | 234° |
| 2026-05-07 14:07 | 28.49847 | 118.07093 | 36128 ft | 411 kts | 234° |
| 2026-05-07 14:07 | 28.45968 | 118.02325 | 36129 ft | 413 kts | 234° |
| 2026-05-07 14:08 | 28.42035 | 117.97496 | 36133 ft | 413 kts | 234° |
| 2026-05-07 14:08 | 28.38085 | 117.92738 | 36135 ft | 414 kts | 232° |
| 2026-05-07 14:09 | 28.34045 | 117.87985 | 36137 ft | 415 kts | 232° |
| 2026-05-07 14:09 | 28.30032 | 117.83278 | 36132 ft | 413 kts | 233° |
| 2026-05-07 14:10 | 28.26035 | 117.78580 | 36127 ft | 415 kts | 232° |
| 2026-05-07 14:10 | 28.22002 | 117.73837 | 36122 ft | 414 kts | 232° |
| 2026-05-07 14:11 | 28.18046 | 117.69188 | 36132 ft | 414 kts | 233° |
| 2026-05-07 14:11 | 28.14028 | 117.64465 | 36134 ft | 417 kts | 232° |
| 2026-05-07 14:12 | 28.09988 | 117.59726 | 36137 ft | 416 kts | 232° |
| 2026-05-07 14:12 | 28.05963 | 117.55011 | 36135 ft | 415 kts | 232° |
| 2026-05-07 14:13 | 28.01927 | 117.50285 | 36133 ft | 416 kts | 232° |
| 2026-05-07 14:13 | 27.97884 | 117.45554 | 36127 ft | 417 kts | 232° |
| 2026-05-07 14:14 | 27.93838 | 117.40826 | 36135 ft | 416 kts | 232° |
| 2026-05-07 14:14 | 27.89822 | 117.36137 | 36132 ft | 418 kts | 232° |
| 2026-05-07 14:15 | 27.85833 | 117.31487 | 36135 ft | 417 kts | 232° |
| 2026-05-07 14:15 | 27.81747 | 117.26727 | 36137 ft | 419 kts | 232° |
| 2026-05-07 14:16 | 27.77707 | 117.22029 | 36133 ft | 419 kts | 232° |
| 2026-05-07 14:16 | 27.73620 | 117.17281 | 36126 ft | 419 kts | 232° |
| 2026-05-07 14:17 | 27.69531 | 117.12537 | 36122 ft | 420 kts | 232° |
| 2026-05-07 14:17 | 27.65447 | 117.07803 | 36122 ft | 419 kts | 232° |
| 2026-05-07 14:18 | 27.61387 | 117.03103 | 36124 ft | 418 kts | 232° |
| 2026-05-07 14:18 | 27.57313 | 116.98391 | 36131 ft | 420 kts | 232° |
| 2026-05-07 14:19 | 27.53214 | 116.93652 | 36140 ft | 420 kts | 232° |
| 2026-05-07 14:19 | 27.49145 | 116.88937 | 36143 ft | 419 kts | 232° |
| 2026-05-07 14:20 | 27.45074 | 116.84170 | 36134 ft | 421 kts | 232° |
| 2026-05-07 14:20 | 27.41027 | 116.79425 | 36127 ft | 419 kts | 232° |
| 2026-05-07 14:21 | 27.36975 | 116.74684 | 36123 ft | 421 kts | 232° |
| 2026-05-07 14:21 | 27.32888 | 116.69911 | 36125 ft | 422 kts | 232° |
| 2026-05-07 14:22 | 27.28812 | 116.65163 | 36122 ft | 421 kts | 232° |
| 2026-05-07 14:22 | 27.24716 | 116.60394 | 36118 ft | 423 kts | 232° |
| 2026-05-07 14:23 | 27.20633 | 116.55646 | 36120 ft | 421 kts | 232° |
| 2026-05-07 14:23 | 27.16613 | 116.50851 | 36121 ft | 421 kts | 233° |
| 2026-05-07 14:24 | 27.12635 | 116.46008 | 36117 ft | 420 kts | 233° |
| 2026-05-07 14:24 | 27.08642 | 116.41145 | 36118 ft | 421 kts | 233° |
| 2026-05-07 14:25 | 27.04632 | 116.36281 | 36119 ft | 422 kts | 233° |
| 2026-05-07 14:25 | 27.00617 | 116.31426 | 36118 ft | 424 kts | 232° |
| 2026-05-07 14:26 | 26.96602 | 116.26585 | 36115 ft | 422 kts | 232° |
| 2026-05-07 14:26 | 26.92595 | 116.21761 | 36113 ft | 422 kts | 232° |
| 2026-05-07 14:27 | 26.88588 | 116.16912 | 36115 ft | 422 kts | 233° |
| 2026-05-07 14:27 | 26.84586 | 116.12032 | 36113 ft | 422 kts | 233° |
| 2026-05-07 14:28 | 26.80615 | 116.07192 | 36109 ft | 424 kts | 233° |
| 2026-05-07 14:28 | 26.76634 | 116.02349 | 36109 ft | 423 kts | 233° |
| 2026-05-07 14:29 | 26.72634 | 115.97495 | 36108 ft | 422 kts | 233° |
| 2026-05-07 14:29 | 26.68654 | 115.92671 | 36114 ft | 420 kts | 233° |
| 2026-05-07 14:30 | 26.64690 | 115.87869 | 36116 ft | 422 kts | 233° |
| 2026-05-07 14:30 | 26.60657 | 115.82989 | 36116 ft | 422 kts | 233° |
| 2026-05-07 14:31 | 26.56674 | 115.78179 | 36116 ft | 421 kts | 233° |
| 2026-05-07 14:31 | 26.52683 | 115.73362 | 36112 ft | 422 kts | 233° |
| 2026-05-07 14:32 | 26.48683 | 115.68539 | 36115 ft | 422 kts | 233° |
| 2026-05-07 14:32 | 26.44675 | 115.63713 | 36116 ft | 422 kts | 233° |
| 2026-05-07 14:33 | 26.40676 | 115.58903 | 36122 ft | 422 kts | 233° |
| 2026-05-07 14:33 | 26.36676 | 115.54099 | 36123 ft | 421 kts | 233° |
| 2026-05-07 14:34 | 26.32672 | 115.49294 | 36128 ft | 422 kts | 233° |
| 2026-05-07 14:34 | 26.28680 | 115.44506 | 36125 ft | 421 kts | 233° |
| 2026-05-07 14:35 | 26.24684 | 115.39722 | 36119 ft | 422 kts | 233° |
| 2026-05-07 14:35 | 26.20663 | 115.34911 | 36112 ft | 422 kts | 232° |
| 2026-05-07 14:36 | 26.16650 | 115.30116 | 36107 ft | 423 kts | 232° |
| 2026-05-07 14:36 | 26.12617 | 115.25304 | 36106 ft | 422 kts | 232° |
| 2026-05-07 14:37 | 26.08599 | 115.20513 | 36106 ft | 422 kts | 232° |
| 2026-05-07 14:37 | 26.02584 | 115.13350 | 36106 ft | 423 kts | 232° |
| 2026-05-07 14:38 | 25.98554 | 115.08559 | 36116 ft | 424 kts | 232° |
| 2026-05-07 14:38 | 25.94496 | 115.03739 | 36114 ft | 424 kts | 232° |
| 2026-05-07 14:39 | 25.90452 | 114.98942 | 36108 ft | 424 kts | 232° |
| 2026-05-07 14:39 | 25.86597 | 114.94371 | 36108 ft | 423 kts | 232° |
| 2026-05-07 14:40 | 25.82407 | 114.89780 | 36110 ft | 428 kts | 224° |
| 2026-05-07 14:40 | 25.77119 | 114.86646 | 36106 ft | 446 kts | 205° |
| 2026-05-07 14:41 | 25.71034 | 114.84856 | 36101 ft | 452 kts | 199° |
| 2026-05-07 14:41 | 25.64838 | 114.83372 | 36098 ft | 452 kts | 198° |
| 2026-05-07 14:42 | 25.58640 | 114.81918 | 36094 ft | 453 kts | 199° |
| 2026-05-07 14:42 | 25.52441 | 114.80430 | 36091 ft | 451 kts | 199° |
| 2026-05-07 14:43 | 25.46252 | 114.78921 | 36094 ft | 453 kts | 199° |
| 2026-05-07 14:43 | 25.40051 | 114.77396 | 36089 ft | 451 kts | 199° |
| 2026-05-07 14:44 | 25.33890 | 114.75875 | 36086 ft | 453 kts | 199° |
| 2026-05-07 14:44 | 25.27726 | 114.74354 | 36081 ft | 452 kts | 199° |
| 2026-05-07 14:45 | 25.21550 | 114.72830 | 36079 ft | 452 kts | 199° |
| 2026-05-07 14:45 | 25.15375 | 114.71310 | 36085 ft | 451 kts | 199° |
| 2026-05-07 14:46 | 25.09176 | 114.69785 | 36090 ft | 451 kts | 199° |
| 2026-05-07 14:46 | 25.03023 | 114.68272 | 36090 ft | 452 kts | 199° |
| 2026-05-07 14:47 | 24.96847 | 114.66755 | 36092 ft | 453 kts | 199° |
| 2026-05-07 14:47 | 24.90596 | 114.65220 | 36089 ft | 455 kts | 199° |
| 2026-05-07 14:48 | 24.84465 | 114.63717 | 36083 ft | 455 kts | 199° |
| 2026-05-07 14:48 | 24.78470 | 114.62244 | 36080 ft | 454 kts | 199° |
| 2026-05-07 14:49 | 24.72406 | 114.60622 | 36093 ft | 453 kts | 203° |
| 2026-05-07 14:49 | 24.66677 | 114.58081 | 36103 ft | 446 kts | 212° |
| 2026-05-07 14:50 | 24.61257 | 114.54837 | 36106 ft | 443 kts | 216° |
| 2026-05-07 14:50 | 24.55997 | 114.51459 | 36118 ft | 442 kts | 216° |
| 2026-05-07 14:51 | 24.50635 | 114.48005 | 36128 ft | 443 kts | 216° |
| 2026-05-07 14:51 | 24.45352 | 114.44634 | 36123 ft | 445 kts | 216° |
| 2026-05-07 14:52 | 24.39960 | 114.41219 | 36118 ft | 444 kts | 216° |
| 2026-05-07 14:52 | 24.34571 | 114.37830 | 36115 ft | 445 kts | 215° |
| 2026-05-07 14:53 | 24.29192 | 114.34460 | 36120 ft | 443 kts | 215° |
| 2026-05-07 14:53 | 24.23777 | 114.31072 | 36128 ft | 447 kts | 215° |
| 2026-05-07 14:54 | 24.18339 | 114.27669 | 36131 ft | 445 kts | 214° |
| 2026-05-07 14:54 | 24.12946 | 114.24302 | 36133 ft | 447 kts | 214° |
| 2026-05-07 14:55 | 24.07504 | 114.20901 | 36133 ft | 445 kts | 214° |
| 2026-05-07 14:55 | 24.02111 | 114.17537 | 36137 ft | 445 kts | 214° |
| 2026-05-07 14:56 | 23.96687 | 114.14154 | 36139 ft | 447 kts | 214° |
| 2026-05-07 14:56 | 23.91279 | 114.10785 | 36134 ft | 448 kts | 214° |
| 2026-05-07 14:57 | 23.85921 | 114.07452 | 36126 ft | 449 kts | 214° |
| 2026-05-07 14:57 | 23.80584 | 114.04137 | 36115 ft | 449 kts | 214° |
| 2026-05-07 14:58 | 23.75144 | 114.00760 | 36106 ft | 448 kts | 214° |
| 2026-05-07 14:58 | 23.69678 | 113.97367 | 36091 ft | 448 kts | 214° |
| 2026-05-07 14:59 | 23.64244 | 113.93997 | 36078 ft | 449 kts | 214° |
| 2026-05-07 14:59 | 23.58763 | 113.90601 | 36066 ft | 451 kts | 214° |
| 2026-05-07 15:00 | 23.53268 | 113.87243 | 36055 ft | 452 kts | 212° |
| 2026-05-07 15:00 | 23.47454 | 113.84477 | 36053 ft | 458 kts | 202° |
| 2026-05-07 15:01 | 23.41288 | 113.82513 | 36046 ft | 461 kts | 199° |
| 2026-05-07 15:01 | 23.35024 | 113.80737 | 36047 ft | 461 kts | 199° |
| 2026-05-07 15:02 | 23.28795 | 113.78955 | 36039 ft | 462 kts | 199° |
| 2026-05-07 15:02 | 23.22614 | 113.77144 | 36044 ft | 462 kts | 199° |
| 2026-05-07 15:03 | 23.16403 | 113.75299 | 36049 ft | 461 kts | 199° |
| 2026-05-07 15:03 | 23.10168 | 113.73432 | 36049 ft | 462 kts | 199° |
| 2026-05-07 15:04 | 23.03958 | 113.71570 | 36050 ft | 462 kts | 199° |
| 2026-05-07 15:04 | 22.97720 | 113.69701 | 36050 ft | 462 kts | 199° |
| 2026-05-07 15:05 | 22.91500 | 113.67838 | 36048 ft | 463 kts | 199° |
| 2026-05-07 15:05 | 22.85292 | 113.65972 | 36049 ft | 462 kts | 199° |
| 2026-05-07 15:06 | 22.79082 | 113.64079 | 36050 ft | 463 kts | 200° |
| 2026-05-07 15:06 | 22.72861 | 113.62176 | 36048 ft | 463 kts | 200° |
| 2026-05-07 15:07 | 22.66653 | 113.60281 | 36048 ft | 463 kts | 199° |
| 2026-05-07 15:07 | 22.60429 | 113.58387 | 36050 ft | 465 kts | 199° |
| 2026-05-07 15:08 | 22.54202 | 113.56494 | 36049 ft | 465 kts | 199° |
| 2026-05-07 15:08 | 22.47931 | 113.54580 | 36039 ft | 466 kts | 199° |
| 2026-05-07 15:09 | 22.41698 | 113.52668 | 36033 ft | 465 kts | 199° |
| 2026-05-07 15:09 | 22.35488 | 113.50763 | 36033 ft | 467 kts | 199° |
| 2026-05-07 15:10 | 22.29266 | 113.48664 | 36033 ft | 464 kts | 206° |
| 2026-05-07 15:10 | 22.26430 | 113.47111 | 36037 ft | 459 kts | 217° |
| 2026-05-07 15:10 | 22.23886 | 113.45005 | 36042 ft | 454 kts | 227° |
| 2026-05-07 15:11 | 22.19907 | 113.39835 | 36041 ft | 447 kts | 241° |
| 2026-05-07 15:11 | 22.17122 | 113.33894 | 36046 ft | 443 kts | 250° |
| 2026-05-07 15:12 | 22.14873 | 113.27728 | 36053 ft | 442 kts | 252° |
| 2026-05-07 15:12 | 22.12644 | 113.21499 | 36052 ft | 443 kts | 250° |
| 2026-05-07 15:13 | 22.10211 | 113.15393 | 36051 ft | 445 kts | 249° |
| 2026-05-07 15:13 | 22.07670 | 113.09296 | 36046 ft | 445 kts | 249° |
| 2026-05-07 15:14 | 22.05110 | 113.03200 | 36047 ft | 446 kts | 249° |
| 2026-05-07 15:14 | 22.02583 | 112.97114 | 36047 ft | 444 kts | 249° |
| 2026-05-07 15:15 | 22.00172 | 112.90977 | 36049 ft | 444 kts | 250° |
| 2026-05-07 15:15 | 21.97796 | 112.84822 | 36051 ft | 445 kts | 250° |
| 2026-05-07 15:16 | 21.95415 | 112.78708 | 36053 ft | 446 kts | 250° |
| 2026-05-07 15:16 | 21.92940 | 112.72529 | 36054 ft | 447 kts | 249° |
| 2026-05-07 15:17 | 21.90470 | 112.66431 | 36052 ft | 446 kts | 249° |
| 2026-05-07 15:17 | 21.87985 | 112.60296 | 36048 ft | 447 kts | 249° |
| 2026-05-07 15:18 | 21.85482 | 112.54121 | 36047 ft | 448 kts | 249° |
| 2026-05-07 15:18 | 21.83030 | 112.47985 | 36044 ft | 447 kts | 250° |
| 2026-05-07 15:19 | 21.80600 | 112.41848 | 36044 ft | 447 kts | 250° |
| 2026-05-07 15:19 | 21.78146 | 112.35651 | 36041 ft | 448 kts | 250° |
| 2026-05-07 15:20 | 21.75708 | 112.29510 | 36042 ft | 448 kts | 249° |
| 2026-05-07 15:20 | 21.73254 | 112.23344 | 36043 ft | 449 kts | 249° |
| 2026-05-07 15:21 | 21.70789 | 112.17158 | 36044 ft | 449 kts | 249° |
| 2026-05-07 15:21 | 21.68316 | 112.10964 | 36040 ft | 449 kts | 249° |
| 2026-05-07 15:22 | 21.65846 | 112.04790 | 36041 ft | 450 kts | 249° |
| 2026-05-07 15:22 | 21.63375 | 111.98621 | 36038 ft | 449 kts | 249° |
| 2026-05-07 15:23 | 21.60896 | 111.92439 | 36034 ft | 450 kts | 249° |
| 2026-05-07 15:23 | 21.58388 | 111.86288 | 36034 ft | 450 kts | 248° |
| 2026-05-07 15:24 | 21.55250 | 111.80439 | 36034 ft | 454 kts | 237° |
| 2026-05-07 15:24 | 21.51269 | 111.75106 | 35856 ft | 458 kts | 232° |
| 2026-05-07 15:25 | 21.49213 | 111.72559 | 35566 ft | 457 kts | 231° |
| 2026-05-07 15:25 | 21.47101 | 111.69979 | 35277 ft | 456 kts | 231° |
| 2026-05-07 15:25 | 21.44991 | 111.67404 | 34987 ft | 456 kts | 231° |
| 2026-05-07 15:25 | 21.42897 | 111.64836 | 34703 ft | 457 kts | 231° |
| 2026-05-07 15:26 | 21.40822 | 111.62276 | 34418 ft | 459 kts | 232° |
| 2026-05-07 15:26 | 21.38699 | 111.59645 | 34127 ft | 460 kts | 232° |
| 2026-05-07 15:26 | 21.36602 | 111.57034 | 33841 ft | 461 kts | 232° |
| 2026-05-07 15:26 | 21.34517 | 111.54430 | 33555 ft | 461 kts | 232° |
| 2026-05-07 15:27 | 21.32426 | 111.51814 | 33268 ft | 462 kts | 232° |
| 2026-05-07 15:27 | 21.30339 | 111.49204 | 32984 ft | 463 kts | 232° |
| 2026-05-07 15:27 | 21.28235 | 111.46572 | 32697 ft | 464 kts | 232° |
| 2026-05-07 15:27 | 21.26124 | 111.43931 | 32437 ft | 465 kts | 232° |
| 2026-05-07 15:28 | 21.23996 | 111.41269 | 32176 ft | 466 kts | 232° |
| 2026-05-07 15:28 | 21.21897 | 111.38643 | 32015 ft | 465 kts | 232° |
| 2026-05-07 15:28 | 21.17653 | 111.33338 | 32006 ft | 469 kts | 232° |
| 2026-05-07 15:29 | 21.13413 | 111.28041 | 32007 ft | 468 kts | 232° |
| 2026-05-07 15:29 | 21.09173 | 111.22752 | 32006 ft | 469 kts | 232° |
| 2026-05-07 15:30 | 21.04902 | 111.17429 | 32005 ft | 469 kts | 232° |
| 2026-05-07 15:30 | 21.00645 | 111.12128 | 32006 ft | 468 kts | 232° |
| 2026-05-07 15:31 | 20.96217 | 111.06987 | 31925 ft | 472 kts | 225° |
| 2026-05-07 15:31 | 20.93586 | 111.04828 | 31663 ft | 475 kts | 214° |
| 2026-05-07 15:31 | 20.90718 | 111.03102 | 31419 ft | 475 kts | 209° |
| 2026-05-07 15:32 | 20.87699 | 111.01553 | 31166 ft | 476 kts | 207° |
| 2026-05-07 15:32 | 20.84650 | 111.00114 | 30913 ft | 478 kts | 206° |
| 2026-05-07 15:32 | 20.81603 | 110.98727 | 30661 ft | 478 kts | 205° |
| 2026-05-07 15:32 | 20.78503 | 110.97331 | 30406 ft | 479 kts | 205° |
| 2026-05-07 15:33 | 20.75449 | 110.95950 | 30154 ft | 479 kts | 205° |
| 2026-05-07 15:33 | 20.72365 | 110.94540 | 29898 ft | 479 kts | 205° |
| 2026-05-07 15:33 | 20.69321 | 110.93134 | 29645 ft | 480 kts | 206° |
| 2026-05-07 15:33 | 20.66224 | 110.91693 | 28955 ft | 483 kts | 206° |
| 2026-05-07 15:34 | 20.63175 | 110.90266 | 28382 ft | 477 kts | 206° |
| 2026-05-07 15:34 | 20.60135 | 110.88835 | 27821 ft | 471 kts | 206° |
| 2026-05-07 15:34 | 20.57157 | 110.87429 | 27232 ft | 467 kts | 206° |
| 2026-05-07 15:34 | 20.54149 | 110.86025 | 26693 ft | 461 kts | 205° |
| 2026-05-07 15:35 | 20.51219 | 110.84782 | 26391 ft | 451 kts | 201° |
| 2026-05-07 15:35 | 20.48197 | 110.83901 | 26176 ft | 440 kts | 193° |
| 2026-05-07 15:35 | 20.45204 | 110.83395 | 25557 ft | 440 kts | 188° |
| 2026-05-07 15:35 | 20.42139 | 110.83086 | 24982 ft | 437 kts | 185° |
| 2026-05-07 15:36 | 20.39109 | 110.82878 | 24435 ft | 434 kts | 184° |
| 2026-05-07 15:36 | 20.36086 | 110.82705 | 23886 ft | 430 kts | 184° |
| 2026-05-07 15:36 | 20.33144 | 110.82541 | 23352 ft | 414 kts | 184° |
| 2026-05-07 15:36 | 20.30295 | 110.82374 | 22858 ft | 400 kts | 184° |
| 2026-05-07 15:37 | 20.27593 | 110.82202 | 22369 ft | 387 kts | 184° |
| 2026-05-07 15:37 | 20.24906 | 110.82020 | 21891 ft | 382 kts | 185° |
| 2026-05-07 15:37 | 20.22193 | 110.81825 | 21398 ft | 390 kts | 185° |
| 2026-05-07 15:37 | 20.19502 | 110.81626 | 20898 ft | 385 kts | 185° |
| 2026-05-07 15:38 | 20.16847 | 110.81426 | 20381 ft | 374 kts | 185° |
| 2026-05-07 15:38 | 20.14257 | 110.81228 | 19877 ft | 373 kts | 185° |
| 2026-05-07 15:38 | 20.11661 | 110.81027 | 19381 ft | 379 kts | 185° |
| 2026-05-07 15:38 | 20.09031 | 110.80760 | 18868 ft | 370 kts | 189° |
| 2026-05-07 15:39 | 20.06589 | 110.80165 | 18386 ft | 357 kts | 201° |
| 2026-05-07 15:39 | 20.04298 | 110.79017 | 17912 ft | 362 kts | 213° |
| 2026-05-07 15:39 | 20.02261 | 110.77435 | 17400 ft | 362 kts | 223° |
| 2026-05-07 15:39 | 20.00471 | 110.75612 | 16904 ft | 350 kts | 228° |
| 2026-05-07 15:40 | 19.98859 | 110.73721 | 16430 ft | 345 kts | 230° |
| 2026-05-07 15:40 | 19.97267 | 110.71725 | 15950 ft | 352 kts | 231° |
| 2026-05-07 15:40 | 19.95701 | 110.69734 | 15457 ft | 347 kts | 231° |
| 2026-05-07 15:40 | 19.94181 | 110.67812 | 14983 ft | 336 kts | 231° |
| 2026-05-07 15:41 | 19.92664 | 110.65908 | 14527 ft | 341 kts | 231° |
| 2026-05-07 15:41 | 19.91115 | 110.63979 | 14047 ft | 343 kts | 230° |
| 2026-05-07 15:41 | 19.89567 | 110.62063 | 13574 ft | 331 kts | 230° |
| 2026-05-07 15:41 | 19.88076 | 110.60223 | 13200 ft | 326 kts | 230° |
| 2026-05-07 15:42 | 19.86580 | 110.58347 | 12988 ft | 335 kts | 233° |
| 2026-05-07 15:42 | 19.85360 | 110.56274 | 12723 ft | 333 kts | 249° |
| 2026-05-07 15:42 | 19.84843 | 110.53892 | 12492 ft | 331 kts | 268° |
| 2026-05-07 15:42 | 19.84813 | 110.51450 | 12226 ft | 328 kts | 271° |
| 2026-05-07 15:43 | 19.84861 | 110.49069 | 11886 ft | 312 kts | 272° |
| 2026-05-07 15:43 | 19.84906 | 110.46823 | 11555 ft | 298 kts | 272° |
| 2026-05-07 15:43 | 19.84933 | 110.44667 | 11223 ft | 287 kts | 271° |
| 2026-05-07 15:43 | 19.84944 | 110.42574 | 10891 ft | 277 kts | 271° |
| 2026-05-07 15:44 | 19.84944 | 110.40551 | 10780 ft | 274 kts | 271° |
| 2026-05-07 15:44 | 19.84940 | 110.38481 | 10493 ft | 280 kts | 270° |
| 2026-05-07 15:44 | 19.84934 | 110.36442 | 10018 ft | 277 kts | 271° |
| 2026-05-07 15:44 | 19.84928 | 110.34390 | 9542 ft | 272 kts | 270° |
| 2026-05-07 15:45 | 19.84921 | 110.32409 | 9073 ft | 270 kts | 270° |
| 2026-05-07 15:45 | 19.84915 | 110.30415 | 8597 ft | 268 kts | 270° |
| 2026-05-07 15:45 | 19.84908 | 110.28426 | 8120 ft | 266 kts | 270° |
| 2026-05-07 15:45 | 19.84902 | 110.26492 | 7647 ft | 263 kts | 270° |
| 2026-05-07 15:46 | 19.84887 | 110.22640 | 6692 ft | 258 kts | 270° |
| 2026-05-07 15:46 | 19.84880 | 110.20718 | 6209 ft | 257 kts | 270° |
| 2026-05-07 15:46 | 19.84872 | 110.18839 | 5733 ft | 256 kts | 270° |
| 2026-05-07 15:47 | 19.84865 | 110.16965 | 5249 ft | 255 kts | 270° |
| 2026-05-07 15:47 | 19.84858 | 110.15058 | 4547 ft | 263 kts | 270° |
| 2026-05-07 15:47 | 19.84857 | 110.13084 | 3824 ft | 269 kts | 270° |
| 2026-05-07 15:47 | 19.84885 | 110.11093 | 3249 ft | 268 kts | 271° |
| 2026-05-07 15:48 | 19.85037 | 110.09173 | 2959 ft | 257 kts | 281° |
| 2026-05-07 15:48 | 19.85698 | 110.07494 | 2862 ft | 238 kts | 309° |
| 2026-05-07 15:48 | 19.86912 | 110.06414 | 2878 ft | 222 kts | 333° |
| 2026-05-07 15:48 | 19.88305 | 110.05808 | 2874 ft | 205 kts | 347° |
| 2026-05-07 15:49 | 19.89691 | 110.05632 | 2886 ft | 198 kts | 2° |
| 2026-05-07 15:49 | 19.91072 | 110.05673 | 2867 ft | 195 kts | 3° |
| 2026-05-07 15:49 | 19.92435 | 110.05705 | 2870 ft | 196 kts | 2° |
| 2026-05-07 15:49 | 19.93802 | 110.05778 | 2868 ft | 195 kts | 15° |
| 2026-05-07 15:50 | 19.94935 | 110.06457 | 2869 ft | 184 kts | 53° |
| 2026-05-07 15:50 | 19.95390 | 110.07692 | 2879 ft | 179 kts | 91° |
| 2026-05-07 15:50 | 19.95297 | 110.09013 | 2874 ft | 178 kts | 95° |
| 2026-05-07 15:50 | 19.95244 | 110.10305 | 2867 ft | 168 kts | 91° |
| 2026-05-07 15:51 | 19.95238 | 110.11488 | 2873 ft | 156 kts | 91° |
| 2026-05-07 15:51 | 19.95236 | 110.12640 | 2879 ft | 156 kts | 91° |
| 2026-05-07 15:51 | 19.95238 | 110.13792 | 2878 ft | 155 kts | 91° |
| 2026-05-07 15:51 | 19.95241 | 110.14950 | 2876 ft | 155 kts | 91° |
| 2026-05-07 15:52 | 19.95247 | 110.16101 | 2879 ft | 156 kts | 91° |
| 2026-05-07 15:52 | 19.95252 | 110.17248 | 2877 ft | 155 kts | 91° |
| 2026-05-07 15:52 | 19.95257 | 110.18402 | 2879 ft | 155 kts | 91° |
| 2026-05-07 15:52 | 19.95262 | 110.19550 | 2881 ft | 155 kts | 91° |
| 2026-05-07 15:53 | 19.95268 | 110.20712 | 2882 ft | 155 kts | 91° |
| 2026-05-07 15:53 | 19.95273 | 110.21858 | 2885 ft | 156 kts | 90° |
| 2026-05-07 15:53 | 19.95279 | 110.23008 | 2885 ft | 156 kts | 91° |
| 2026-05-07 15:53 | 19.95284 | 110.24171 | 2885 ft | 156 kts | 91° |
| 2026-05-07 15:54 | 19.95289 | 110.25315 | 2883 ft | 154 kts | 91° |
| 2026-05-07 15:54 | 19.95294 | 110.26463 | 2884 ft | 155 kts | 91° |
| 2026-05-07 15:54 | 19.95299 | 110.27610 | 2887 ft | 155 kts | 91° |
| 2026-05-07 15:54 | 19.95304 | 110.28763 | 2891 ft | 155 kts | 91° |
| 2026-05-07 15:55 | 19.95309 | 110.29926 | 2791 ft | 157 kts | 91° |
| 2026-05-07 15:55 | 19.95314 | 110.31087 | 2548 ft | 155 kts | 91° |
| 2026-05-07 15:55 | 19.95319 | 110.32217 | 2359 ft | 152 kts | 91° |
| 2026-05-07 15:55 | 19.95324 | 110.33339 | 2150 ft | 151 kts | 91° |
| 2026-05-07 15:56 | 19.95328 | 110.34467 | 1948 ft | 152 kts | 92° |
| 2026-05-07 15:56 | 19.95333 | 110.35586 | 1750 ft | 151 kts | 92° |
| 2026-05-07 15:56 | 19.95338 | 110.36678 | 1556 ft | 145 kts | 92° |
| 2026-05-07 15:56 | 19.95342 | 110.37749 | 1367 ft | 144 kts | 92° |
| 2026-05-07 15:57 | 19.95346 | 110.38816 | 1177 ft | 144 kts | 92° |
| 2026-05-07 15:57 | 19.95351 | 110.39886 | 986 ft | 144 kts | 92° |
| 2026-05-07 15:57 | 19.95355 | 110.40948 | 804 ft | 143 kts | 91° |
| 2026-05-07 15:57 | 19.95360 | 110.42007 | 618 ft | 143 kts | 91° |
| 2026-05-07 15:58 | 19.95362 | 110.43072 | 431 ft | 142 kts | 91° |
| 2026-05-07 15:58 | 19.95367 | 110.44127 | 248 ft | 143 kts | 91° |
| 2026-05-07 15:58 | 19.95370 | 110.45185 | 118 ft | 140 kts | 91° |
| 2026-05-07 15:58 | 19.95362 | 110.46172 | 87 ft | 127 kts | 91° |
| 2026-05-07 15:59 | 19.95366 | 110.46903 | 83 ft | 66 kts | 88° |
| 2026-05-07 15:59 | 19.95378 | 110.47208 | 83 ft | 26 kts | 89° |
| 2026-05-07 15:59 | 19.95375 | 110.47401 | 83 ft | 25 kts | 92° |
| 2026-05-07 15:59 | 19.95354 | 110.47490 | 83 ft | 0 kts | 150° |
| 2026-05-07 16:00 | 19.95328 | 110.47504 | 83 ft | 9 kts | 162° |
| 2026-05-07 16:00 | 19.95249 | 110.47499 | 83 ft | 11 kts | 195° |
| 2026-05-07 16:00 | 19.95165 | 110.47495 | 83 ft | 12 kts | 180° |
| 2026-05-07 16:00 | 19.95125 | 110.47437 | 83 ft | 11 kts | 269° |
| 2026-05-07 16:01 | 19.95123 | 110.47346 | 83 ft | 12 kts | 268° |
| 2026-05-07 16:01 | 19.95125 | 110.47247 | 83 ft | 13 kts | 271° |
| 2026-05-07 16:01 | 19.95126 | 110.47144 | 83 ft | 14 kts | 270° |
| 2026-05-07 16:01 | 19.95124 | 110.47033 | 83 ft | 15 kts | 268° |
| 2026-05-07 16:02 | 19.95123 | 110.46915 | 83 ft | 16 kts | 270° |
| 2026-05-07 16:02 | 19.95124 | 110.46792 | 83 ft | 16 kts | 269° |
| 2026-05-07 16:02 | 19.95123 | 110.46669 | 83 ft | 16 kts | 269° |
| 2026-05-07 16:02 | 19.95123 | 110.46550 | 83 ft | 15 kts | 271° |
| 2026-05-07 16:03 | 19.95122 | 110.46435 | 83 ft | 15 kts | 269° |
| 2026-05-07 16:03 | 19.95087 | 110.46345 | 83 ft | 13 kts | 194° |
| 2026-05-07 16:03 | 19.95063 | 110.46266 | 83 ft | 11 kts | 269° |
| 2026-05-07 16:03 | 19.95063 | 110.46180 | 83 ft | 11 kts | 270° |
| 2026-05-07 16:04 | 19.95063 | 110.46098 | 83 ft | 10 kts | 269° |
| 2026-05-07 16:04 | 19.95063 | 110.46018 | 83 ft | 10 kts | 269° |
| 2026-05-07 16:04 | 19.95034 | 110.45955 | 83 ft | 9 kts | 225° |
| 2026-05-07 16:04 | 19.94988 | 110.45906 | 83 ft | 9 kts | 225° |
| 2026-05-07 16:05 | 19.94937 | 110.45900 | 83 ft | 7 kts | 155° |
| 2026-05-07 16:05 | 19.94888 | 110.45917 | 83 ft | 7 kts | 163° |
| 2026-05-07 16:05 | 19.94861 | 110.45925 | 83 ft | 0 kts | 163° |